Time;durP1;ratioP1;P1;durP2;ratioP2;P2;SDS_P1;SDS_P2;PMS_P1;PMS_P2;Temp;Humidity;BMP_temperature;BMP_pressure;BME280_temperature;BME280_humidity;BME280_pressure;Samples;Min_cycle;Max_cycle;Signal;HPM_P1;HPM_P2
2023/07/13 00:01:03;;;;;;;1.60;1.35;;;;;;;;;;4995407;28;20042;-93
2023/07/13 00:03:34;;;;;;;2.20;1.48;;;;;;;;;;4996339;28;20053;-93
2023/07/13 00:06:08;;;;;;;1.17;1.08;;;;;;;;;;4997631;28;20046;-93
2023/07/13 00:08:38;;;;;;;6.10;1.90;;;;;;;;;;5013848;28;20058;-91
2023/07/13 00:11:07;;;;;;;1.13;0.80;;;;;;;;;;5016263;28;20045;-92
2023/07/13 00:13:39;;;;;;;4.63;1.20;;;;;;;;;;4993392;28;20046;-92
2023/07/13 00:16:08;;;;;;;1.55;1.30;;;;;;;;;;4996777;28;20065;-93
2023/07/13 00:18:38;;;;;;;3.22;1.60;;;;;;;;;;5003852;28;20050;-94
2023/07/13 00:21:10;;;;;;;6.75;1.60;;;;;;;;;;5004344;28;20534;-94
2023/07/13 00:23:41;;;;;;;2.90;1.08;;;;;;;;;;4983104;28;20055;-93
2023/07/13 00:26:10;;;;;;;1.60;1.30;;;;;;;;;;5017066;28;20671;-93
2023/07/13 00:28:37;;;;;;;3.83;2.08;;;;;;;;;;5015933;28;20055;-94
2023/07/13 00:31:05;;;;;;;2.55;1.55;;;;;;;;;;5003956;28;20061;-93
2023/07/13 00:33:33;;;;;;;2.33;1.45;;;;;;;;;;5010466;28;20069;-93
2023/07/13 00:36:01;;;;;;;4.25;1.48;;;;;;;;;;5010023;28;20038;-92
2023/07/13 00:38:32;;;;;;;2.60;1.52;;;;;;;;;;5018097;28;20035;-91
2023/07/13 00:41:03;;;;;;;2.17;1.58;;;;;;;;;;5011213;28;20138;-93
2023/07/13 00:43:33;;;;;;;;;;;;;;;;;;5008599;28;20054;-92
2023/07/13 00:46:15;;;;;;;2.42;1.40;;;;;;;;;;5000419;28;20375;-93
2023/07/13 00:48:47;;;;;;;3.08;1.90;;;;;;;;;;5001252;28;20135;-91
2023/07/13 00:51:23;;;;;;;4.00;1.58;;;;;;;;;;4987733;28;20138;-91
2023/07/13 00:53:55;;;;;;;2.25;1.40;;;;;;;;;;4995936;28;20042;-93
2023/07/13 00:56:26;;;;;;;2.60;1.35;;;;;;;;;;5005217;28;20046;-93
2023/07/13 00:58:54;;;;;;;2.55;1.35;;;;;;;;;;5000519;28;20050;-93
2023/07/13 01:01:22;;;;;;;2.35;1.67;;;;;;;;;;4999464;28;20046;-92
2023/07/13 01:03:50;;;;;;;2.10;1.55;;;;;;;;;;4983175;28;20077;-93
2023/07/13 01:06:18;;;;;;;2.10;1.10;;;;;;;;;;5000290;28;20069;-92
2023/07/13 01:08:45;;;;;;;3.97;1.27;;;;;;;;;;4990345;28;20423;-93
2023/07/13 01:11:19;;;;;;;2.40;1.20;;;;;;;;;;4991983;28;20058;-92
2023/07/13 01:13:53;;;;;;;3.55;2.17;;;;;;;;;;4981262;28;20054;-93
2023/07/13 01:16:26;;;;;;;3.80;1.70;;;;;;;;;;5001079;28;20077;-92
2023/07/13 01:18:54;;;;;;;4.50;1.30;;;;;;;;;;4985879;28;20084;-93
2023/07/13 01:21:22;;;;;;;3.30;1.73;;;;;;;;;;5009064;28;20046;-93
2023/07/13 01:23:53;;;;;;;2.80;1.58;;;;;;;;;;5015726;28;20046;-93
2023/07/13 01:26:22;;;;;;;7.35;1.98;;;;;;;;;;4987609;28;20053;-93
2023/07/13 01:28:52;;;;;;;3.85;1.83;;;;;;;;;;4980788;28;20050;-93
2023/07/13 01:31:20;;;;;;;2.13;1.65;;;;;;;;;;4984143;28;20061;-92
2023/07/13 01:33:47;;;;;;;4.07;1.60;;;;;;;;;;4979870;28;20050;-92
2023/07/13 01:36:14;;;;;;;3.40;1.73;;;;;;;;;;4996036;28;20049;-92
2023/07/13 01:38:45;;;;;;;1.88;1.40;;;;;;;;;;4998194;28;20050;-93
2023/07/13 01:41:18;;;;;;;2.88;2.08;;;;;;;;;;4995488;28;20316;-92
2023/07/13 01:43:47;;;;;;;2.58;1.90;;;;;;;;;;5018527;28;20046;-91
2023/07/13 01:46:14;;;;;;;2.80;2.30;;;;;;;;;;5004445;28;20065;-92
2023/07/13 01:48:42;;;;;;;4.68;1.92;;;;;;;;;;5008356;28;20058;-92
2023/07/13 01:51:14;;;;;;;2.78;1.75;;;;;;;;;;4991008;28;20054;-91
2023/07/13 01:53:47;;;;;;;3.72;2.33;;;;;;;;;;5009155;28;20057;-91
2023/07/13 01:56:15;;;;;;;3.65;2.88;;;;;;;;;;5008391;28;20054;-92
2023/07/13 01:58:42;;;;;;;2.58;2.00;;;;;;;;;;5022970;28;20052;-91
2023/07/13 02:01:09;;;;;;;2.95;1.95;;;;;;;;;;5021543;28;20046;-91
2023/07/13 02:03:37;;;;;;;2.53;1.77;;;;;;;;;;4991779;28;20055;-92
2023/07/13 02:06:04;;;;;;;4.70;3.13;;;;;;;;;;5007715;28;20058;-91
2023/07/13 02:08:34;;;;;;;4.60;3.00;;;;;;;;;;5008994;28;20057;-91
2023/07/13 02:11:03;;;;;;;4.55;3.08;;;;;;;;;;4991380;28;20069;-92
2023/07/13 02:13:31;;;;;;;6.07;2.45;;;;;;;;;;5021455;28;20053;-92
2023/07/13 02:15:58;;;;;;;2.50;2.10;;;;;;;;;;5008685;28;20054;-92
2023/07/13 02:18:26;;;;;;;4.85;2.40;;;;;;;;;;4997690;28;20079;-89
2023/07/13 02:20:53;;;;;;;2.08;1.88;;;;;;;;;;5010752;28;20234;-90
2023/07/13 02:23:26;;;;;;;2.65;1.83;;;;;;;;;;5006926;28;20050;-91
2023/07/13 02:25:56;;;;;;;2.97;2.22;;;;;;;;;;4986644;28;20065;-93
2023/07/13 02:28:26;;;;;;;3.53;2.60;;;;;;;;;;5030094;28;20030;-92
2023/07/13 02:31:04;;;;;;;2.58;2.28;;;;;;;;;;5013944;28;20040;-93
2023/07/13 02:33:32;;;;;;;3.50;2.13;;;;;;;;;;5014712;28;20042;-91
2023/07/13 02:35:59;;;;;;;2.55;1.70;;;;;;;;;;5013995;28;20046;-91
2023/07/13 02:38:30;;;;;;;3.25;1.67;;;;;;;;;;5032464;28;20042;-92
2023/07/13 02:40:57;;;;;;;2.15;1.95;;;;;;;;;;5030227;28;20039;-91
2023/07/13 02:43:29;;;;;;;3.00;2.15;;;;;;;;;;5019802;28;20042;-91
2023/07/13 02:46:00;;;;;;;2.78;2.33;;;;;;;;;;4999605;28;20034;-91
2023/07/13 02:48:30;;;;;;;5.05;3.05;;;;;;;;;;5031619;28;20044;-91
2023/07/13 02:51:00;;;;;;;5.47;2.15;;;;;;;;;;5003452;28;20049;-90
2023/07/13 02:53:27;;;;;;;2.30;1.80;;;;;;;;;;5017914;28;20043;-91
2023/07/13 02:55:57;;;;;;;4.47;2.28;;;;;;;;;;5015661;28;20040;-92
2023/07/13 02:58:28;;;;;;;2.85;2.25;;;;;;;;;;5016611;28;20034;-92
2023/07/13 03:00:57;;;;;;;3.65;1.77;;;;;;;;;;5013348;28;20035;-91
2023/07/13 03:03:25;;;;;;;4.07;2.25;;;;;;;;;;4999730;28;20054;-90
2023/07/13 03:05:59;;;;;;;2.72;1.95;;;;;;;;;;4998098;28;20035;-91
2023/07/13 03:08:31;;;;;;;2.70;1.92;;;;;;;;;;5001516;28;20046;-91
2023/07/13 03:11:00;;;;;;;4.40;1.90;;;;;;;;;;5015495;28;20065;-91
2023/07/13 03:13:31;;;;;;;3.17;2.28;;;;;;;;;;4998874;28;20052;-89
2023/07/13 03:15:59;;;;;;;2.10;1.88;;;;;;;;;;5013675;28;20036;-91
2023/07/13 03:18:27;;;;;;;3.58;2.10;;;;;;;;;;5008237;28;20051;-90
2023/07/13 03:20:56;;;;;;;4.32;2.10;;;;;;;;;;4991124;28;20047;-90
2023/07/13 03:23:26;;;;;;;2.22;1.75;;;;;;;;;;5015893;28;20034;-92
2023/07/13 03:26:02;;;;;;;2.80;1.70;;;;;;;;;;5014198;28;20054;-91
2023/07/13 03:28:34;;;;;;;4.38;2.20;;;;;;;;;;5013104;28;20064;-92
2023/07/13 03:31:05;;;;;;;5.07;2.00;;;;;;;;;;5011712;28;20061;-91
2023/07/13 03:33:35;;;;;;;3.10;2.15;;;;;;;;;;5028103;28;20057;-91
2023/07/13 03:36:04;;;;;;;2.30;2.10;;;;;;;;;;5012482;28;20030;-91
2023/07/13 03:38:34;;;;;;;3.35;2.00;;;;;;;;;;5011735;28;20057;-92
2023/07/13 03:41:05;;;;;;;3.22;2.13;;;;;;;;;;5011558;28;20047;-92
2023/07/13 03:43:38;;;;;;;2.63;2.42;;;;;;;;;;4984433;28;20058;-92
2023/07/13 03:46:05;;;;;;;4.72;2.00;;;;;;;;;;4988462;28;20058;-91
2023/07/13 03:48:33;;;;;;;2.45;2.05;;;;;;;;;;4959845;28;20050;-93
2023/07/13 03:51:04;;;;;;;3.50;2.35;;;;;;;;;;5000213;28;20057;-93
2023/07/13 03:53:32;;;;;;;2.50;2.05;;;;;;;;;;5007447;28;20073;-92
2023/07/13 03:55:59;;;;;;;4.95;2.78;;;;;;;;;;4994842;28;20054;-93
2023/07/13 03:58:30;;;;;;;3.15;1.80;;;;;;;;;;4995653;28;20051;-92
2023/07/13 04:01:05;;;;;;;2.97;2.10;;;;;;;;;;5009264;28;20046;-92
2023/07/13 04:03:34;;;;;;;4.05;2.35;;;;;;;;;;4994656;28;20061;-93
2023/07/13 04:06:02;;;;;;;7.18;2.80;;;;;;;;;;4997079;28;20054;-92
2023/07/13 04:08:30;;;;;;;5.78;2.35;;;;;;;;;;4990570;28;20046;-93
2023/07/13 04:11:02;;;;;;;2.67;1.90;;;;;;;;;;4978964;28;20515;-93
2023/07/13 04:13:33;;;;;;;2.00;1.77;;;;;;;;;;5002947;28;20058;-92
2023/07/13 04:16:06;;;;;;;2.38;2.17;;;;;;;;;;4995878;28;20058;-92
2023/07/13 04:18:37;;;;;;;2.63;2.17;;;;;;;;;;4996194;28;20504;-91
2023/07/13 04:21:04;;;;;;;5.60;2.35;;;;;;;;;;5014022;28;20046;-92
2023/07/13 04:23:32;;;;;;;2.80;2.28;;;;;;;;;;4991311;28;20042;-93
2023/07/13 04:26:01;;;;;;;3.47;2.75;;;;;;;;;;4978998;28;20046;-92
2023/07/13 04:28:29;;;;;;;4.60;2.15;;;;;;;;;;4978158;28;20050;-92
2023/07/13 04:30:56;;;;;;;7.15;2.33;;;;;;;;;;4993835;28;20062;-92
2023/07/13 04:33:25;;;;;;;2.92;1.63;;;;;;;;;;4995050;28;20391;-90
2023/07/13 04:35:56;;;;;;;3.22;2.40;;;;;;;;;;4984987;28;20419;-93
2023/07/13 04:38:49;;;;;;;2.90;2.13;;;;;;;;;;4994078;28;20050;-93
2023/07/13 04:41:16;;;;;;;2.42;2.10;;;;;;;;;;4978726;28;20057;-92
2023/07/13 04:43:46;;;;;;;6.40;2.15;;;;;;;;;;4977944;28;20050;-90
2023/07/13 04:46:19;;;;;;;2.60;1.92;;;;;;;;;;4996068;28;20057;-92
2023/07/13 04:48:47;;;;;;;4.05;2.22;;;;;;;;;;4994332;28;20046;-91
2023/07/13 04:51:15;;;;;;;3.15;2.25;;;;;;;;;;4993356;28;20065;-92
2023/07/13 04:53:44;;;;;;;4.22;2.13;;;;;;;;;;4992971;28;20065;-92
2023/07/13 04:56:14;;;;;;;3.35;1.92;;;;;;;;;;5004010;28;20061;-93
2023/07/13 04:58:44;;;;;;;3.30;2.35;;;;;;;;;;4977547;28;20050;-92
2023/07/13 05:01:14;;;;;;;2.88;2.13;;;;;;;;;;4983993;28;20439;-92
2023/07/13 05:03:41;;;;;;;4.05;2.20;;;;;;;;;;4992672;28;20046;-93
2023/07/13 05:06:10;;;;;;;2.28;1.73;;;;;;;;;;5005190;28;20049;-92
2023/07/13 05:08:38;;;;;;;3.90;2.05;;;;;;;;;;4995966;28;20050;-91
2023/07/13 05:11:06;;;;;;;13.15;2.83;;;;;;;;;;4998126;28;20054;-93
2023/07/13 05:13:34;;;;;;;3.10;2.00;;;;;;;;;;4993414;28;20059;-93
2023/07/13 05:16:05;;;;;;;2.38;1.98;;;;;;;;;;4994409;28;20580;-92
2023/07/13 05:18:33;;;;;;;3.17;2.25;;;;;;;;;;4996714;28;20045;-92
2023/07/13 05:21:02;;;;;;;2.30;2.08;;;;;;;;;;5012943;28;20546;-90
2023/07/13 05:23:31;;;;;;;4.35;2.40;;;;;;;;;;4976216;28;20046;-92
2023/07/13 05:25:59;;;;;;;3.03;2.25;;;;;;;;;;4993563;28;20061;-91
2023/07/13 05:28:31;;;;;;;6.45;1.90;;;;;;;;;;4990960;28;20043;-92
2023/07/13 05:30:58;;;;;;;2.30;2.10;;;;;;;;;;4992284;28;20039;-93
2023/07/13 05:33:26;;;;;;;4.22;1.75;;;;;;;;;;4995057;28;20046;-92
2023/07/13 05:35:53;;;;;;;2.25;1.70;;;;;;;;;;4995258;28;20046;-93
2023/07/13 05:38:21;;;;;;;2.80;1.52;;;;;;;;;;4994314;28;20057;-92
2023/07/13 05:40:52;;;;;;;4.13;2.88;;;;;;;;;;4976721;28;20550;-92
2023/07/13 05:43:19;;;;;;;2.15;1.40;;;;;;;;;;4993653;28;20061;-92
2023/07/13 05:45:46;;;;;;;3.95;1.92;;;;;;;;;;4992316;28;20085;-91
2023/07/13 05:48:16;;;;;;;2.28;1.55;;;;;;;;;;4989066;28;20046;-91
2023/07/13 05:50:44;;;;;;;6.60;2.00;;;;;;;;;;5007681;28;20423;-92
2023/07/13 05:53:13;;;;;;;4.38;1.90;;;;;;;;;;4994647;28;20054;-91
2023/07/13 05:55:42;;;;;;;3.00;1.65;;;;;;;;;;4974755;28;20455;-92
2023/07/13 05:58:12;;;;;;;3.72;2.45;;;;;;;;;;5002599;28;20058;-91
2023/07/13 06:00:40;;;;;;;3.60;1.85;;;;;;;;;;4990775;28;20061;-92
2023/07/13 06:03:08;;;;;;;5.85;2.67;;;;;;;;;;5010817;28;20049;-90
2023/07/13 06:05:36;;;;;;;2.83;1.80;;;;;;;;;;4994611;28;20054;-91
2023/07/13 06:08:03;;;;;;;2.47;1.35;;;;;;;;;;4976221;28;20481;-92
2023/07/13 06:10:33;;;;;;;4.80;2.03;;;;;;;;;;5007188;28;20060;-92
2023/07/13 06:13:00;;;;;;;8.07;1.70;;;;;;;;;;5004254;28;20046;-91
2023/07/13 06:15:31;;;;;;;2.33;1.55;;;;;;;;;;5002493;28;20131;-90
2023/07/13 06:18:01;;;;;;;2.17;1.35;;;;;;;;;;4975984;28;20047;-91
2023/07/13 06:20:37;;;;;;;2.80;1.50;;;;;;;;;;4993469;28;20054;-91
2023/07/13 06:23:07;;;;;;;3.58;1.70;;;;;;;;;;4992441;28;20061;-90
2023/07/13 06:25:39;;;;;;;2.83;1.20;;;;;;;;;;4975088;28;20510;-92
2023/07/13 06:28:06;;;;;;;2.45;1.67;;;;;;;;;;4996215;28;20309;-91
2023/07/13 06:30:35;;;;;;;4.43;1.85;;;;;;;;;;4976951;28;20046;-91
2023/07/13 06:33:03;;;;;;;2.00;1.23;;;;;;;;;;4994770;28;20042;-91
2023/07/13 06:35:30;;;;;;;3.67;1.50;;;;;;;;;;4979756;28;20062;-91
2023/07/13 06:38:02;;;;;;;2.63;1.67;;;;;;;;;;4994816;28;20050;-90
2023/07/13 06:40:32;;;;;;;3.80;1.40;;;;;;;;;;4994628;28;20049;-90
2023/07/13 06:43:04;;;;;;;3.40;1.55;;;;;;;;;;4992679;28;20388;-92
2023/07/13 06:45:37;;;;;;;2.45;1.23;;;;;;;;;;4993928;28;20051;-91
2023/07/13 06:48:04;;;;;;;2.08;1.30;;;;;;;;;;4994837;28;20053;-91
2023/07/13 06:50:32;;;;;;;2.45;1.17;;;;;;;;;;5018778;28;20053;-92
2023/07/13 06:53:01;;;;;;;1.65;1.33;;;;;;;;;;5000649;28;20046;-91
2023/07/13 06:55:31;;;;;;;1.88;1.70;;;;;;;;;;5004011;28;20068;-92
2023/07/13 06:58:02;;;;;;;2.35;1.30;;;;;;;;;;5001545;28;20046;-91
2023/07/13 07:00:31;;;;;;;2.33;1.20;;;;;;;;;;5001662;28;20042;-91
2023/07/13 07:03:02;;;;;;;3.17;1.52;;;;;;;;;;4996935;28;20049;-91
2023/07/13 07:05:32;;;;;;;1.60;1.33;;;;;;;;;;5003097;28;20054;-91
2023/07/13 07:08:00;;;;;;;3.67;1.48;;;;;;;;;;5004123;28;20057;-91
2023/07/13 07:10:30;;;;;;;4.60;1.30;;;;;;;;;;4996350;28;20034;-92
2023/07/13 07:12:58;;;;;;;2.95;1.45;;;;;;;;;;4993836;28;20050;-90
2023/07/13 07:15:29;;;;;;;3.90;1.60;;;;;;;;;;5010983;28;20050;-91
2023/07/13 07:17:59;;;;;;;2.88;1.70;;;;;;;;;;4993587;28;20046;-91
2023/07/13 07:20:28;;;;;;;2.05;1.52;;;;;;;;;;4993391;28;20050;-92
2023/07/13 07:22:55;;;;;;;2.33;1.67;;;;;;;;;;4990491;28;20058;-91
2023/07/13 07:25:25;;;;;;;4.05;1.55;;;;;;;;;;4975632;28;20061;-91
2023/07/13 07:27:52;;;;;;;2.08;1.85;;;;;;;;;;4977712;28;20536;-91
2023/07/13 07:30:25;;;;;;;4.25;1.75;;;;;;;;;;4972288;28;20042;-90
2023/07/13 07:32:55;;;;;;;2.80;1.50;;;;;;;;;;4977391;28;20046;-91
2023/07/13 07:35:23;;;;;;;3.00;1.48;;;;;;;;;;5010972;28;20054;-90
2023/07/13 07:37:56;;;;;;;4.63;1.63;;;;;;;;;;4993497;28;20503;-91
2023/07/13 07:40:24;;;;;;;2.40;1.27;;;;;;;;;;5021886;28;20058;-91
2023/07/13 07:43:00;;;;;;;5.35;1.80;;;;;;;;;;4998282;28;20057;-91
2023/07/13 07:45:31;;;;;;;4.28;1.77;;;;;;;;;;4997761;28;20069;-92
2023/07/13 07:48:02;;;;;;;1.10;0.88;;;;;;;;;;5004891;28;20042;-92
2023/07/13 07:50:33;;;;;;;3.45;1.13;;;;;;;;;;5003709;28;20039;-91
2023/07/13 07:53:07;;;;;;;2.13;1.25;;;;;;;;;;4996781;28;20042;-90
2023/07/13 07:55:37;;;;;;;3.40;1.88;;;;;;;;;;5014513;28;20042;-91
2023/07/13 07:58:08;;;;;;;2.35;1.05;;;;;;;;;;4996540;28;20065;-90
2023/07/13 08:00:36;;;;;;;4.00;1.25;;;;;;;;;;4999820;28;20527;-91
2023/07/13 08:03:06;;;;;;;2.83;1.80;;;;;;;;;;5004847;28;20527;-92
2023/07/13 08:05:36;;;;;;;1.38;0.75;;;;;;;;;;4998504;28;20059;-91
2023/07/13 08:08:05;;;;;;;1.05;0.93;;;;;;;;;;4998143;28;20046;-92
2023/07/13 08:10:32;;;;;;;4.10;1.17;;;;;;;;;;4993684;28;20524;-89
2023/07/13 08:13:05;;;;;;;3.75;1.65;;;;;;;;;;4975951;28;20050;-91
2023/07/13 08:15:36;;;;;;;2.67;1.30;;;;;;;;;;5014095;28;20051;-90
2023/07/13 08:18:04;;;;;;;2.38;1.00;;;;;;;;;;4995045;28;20047;-91
2023/07/13 08:20:40;;;;;;;2.15;1.00;;;;;;;;;;5001383;28;20046;-91
2023/07/13 08:23:16;;;;;;;2.90;1.38;;;;;;;;;;5004056;28;20042;-92
2023/07/13 08:25:56;;;;;;;1.25;0.90;;;;;;;;;;5017525;28;20517;-92
2023/07/13 08:28:29;;;;;;;2.72;1.15;;;;;;;;;;4996025;28;20818;-92
2023/07/13 08:30:56;;;;;;;;;;;;;;;;;;4982910;28;20073;-91
2023/07/13 08:33:27;;;;;;;2.42;1.38;;;;;;;;;;4994897;28;19928;-93
2023/07/13 08:39:27;;;;;;;2.15;1.00;;;;;;;;;;4995999;28;20027;-93
2023/07/13 08:42:02;;;;;;;1.73;1.52;;;;;;;;;;5014471;28;20393;-90
2023/07/13 08:44:45;;;;;;;3.80;1.17;;;;;;;;;;4984237;28;20057;-92
2023/07/13 08:47:16;;;;;;;2.83;1.60;;;;;;;;;;5018108;28;20057;-90
2023/07/13 08:49:45;;;;;;;4.55;2.15;;;;;;;;;;5011192;28;20061;-92
2023/07/13 08:52:19;;;;;;;1.70;1.23;;;;;;;;;;5010668;28;20080;-92
2023/07/13 08:54:53;;;;;;;3.25;2.20;;;;;;;;;;4977322;28;20042;-91
2023/07/13 08:57:32;;;;;;;3.03;1.70;;;;;;;;;;4980087;28;20674;-93
2023/07/13 09:00:00;;;;;;;2.80;1.38;;;;;;;;;;5009666;28;20033;-93
2023/07/13 09:02:37;;;;;;;3.25;1.30;;;;;;;;;;5022867;28;20046;-93
2023/07/13 09:05:12;;;;;;;3.28;1.58;;;;;;;;;;5026537;28;20052;-93
2023/07/13 09:07:51;;;;;;;2.33;1.38;;;;;;;;;;5010113;28;20053;-93
2023/07/13 09:10:24;;;;;;;1.52;1.40;;;;;;;;;;4987893;28;20061;-93
2023/07/13 09:13:04;;;;;;;4.30;1.40;;;;;;;;;;5007022;28;20046;-92
2023/07/13 09:15:37;;;;;;;10.43;1.77;;;;;;;;;;5018531;28;20062;-93
2023/07/13 09:18:11;;;;;;;5.10;1.98;;;;;;;;;;5004690;28;20046;-92
2023/07/13 09:20:44;;;;;;;3.28;1.65;;;;;;;;;;4999301;28;20058;-93
2023/07/13 09:23:19;;;;;;;3.53;1.10;;;;;;;;;;5002877;28;20054;-93
2023/07/13 09:25:54;;;;;;;2.90;1.38;;;;;;;;;;5007669;28;20065;-93
2023/07/13 09:28:27;;;;;;;4.07;1.55;;;;;;;;;;4991566;28;20061;-93
2023/07/13 09:31:04;;;;;;;8.07;1.58;;;;;;;;;;5005184;28;20053;-92
2023/07/13 09:33:32;;;;;;;4.88;1.80;;;;;;;;;;5004260;28;20042;-94
2023/07/13 09:36:00;;;;;;;5.88;1.77;;;;;;;;;;4991773;28;20038;-92
2023/07/13 09:38:34;;;;;;;4.70;1.50;;;;;;;;;;4989330;28;20055;-93
2023/07/13 09:41:18;;;;;;;3.78;1.85;;;;;;;;;;5006391;28;20046;-93
2023/07/13 09:44:11;;;;;;;3.63;1.10;;;;;;;;;;5007353;28;20050;-92
2023/07/13 09:46:40;;;;;;;2.55;1.55;;;;;;;;;;5003182;28;20056;-92
2023/07/13 09:49:11;;;;;;;3.00;1.38;;;;;;;;;;5006572;28;20042;-92
2023/07/13 09:51:43;;;;;;;2.78;1.23;;;;;;;;;;5006084;28;20060;-93
2023/07/13 09:54:24;;;;;;;1.20;1.08;;;;;;;;;;5002559;28;20043;-92
2023/07/13 09:56:58;;;;;;;2.10;1.20;;;;;;;;;;4990000;28;20058;-92
2023/07/13 09:59:30;;;;;;;2.53;1.30;;;;;;;;;;5008887;28;20046;-93
2023/07/13 10:01:57;;;;;;;2.05;1.23;;;;;;;;;;4983202;28;20145;-92
2023/07/13 10:04:29;;;;;;;2.47;1.33;;;;;;;;;;5017017;28;20038;-90
2023/07/13 10:07:06;;;;;;;2.03;1.60;;;;;;;;;;5022428;28;20051;-91
2023/07/13 10:09:44;;;;;;;2.08;1.35;;;;;;;;;;4997097;28;20046;-93
2023/07/13 10:12:17;;;;;;;1.63;1.23;;;;;;;;;;4999847;28;20495;-93
2023/07/13 10:14:45;;;;;;;1.00;0.90;;;;;;;;;;4988534;28;20042;-93
2023/07/13 10:17:14;;;;;;;4.38;1.40;;;;;;;;;;5010360;28;20055;-94
2023/07/13 10:19:51;;;;;;;2.80;1.27;;;;;;;;;;4985707;28;20073;-93
2023/07/13 10:22:27;;;;;;;2.63;1.33;;;;;;;;;;5001894;28;20050;-93
2023/07/13 10:24:55;;;;;;;3.95;1.20;;;;;;;;;;5019128;28;20046;-93
2023/07/13 10:27:32;;;;;;;4.47;2.30;;;;;;;;;;5002614;28;20050;-92
2023/07/13 10:30:05;;;;;;;3.58;1.50;;;;;;;;;;4985818;28;20463;-92
2023/07/13 10:32:41;;;;;;;4.15;1.40;;;;;;;;;;5004528;28;20046;-94
2023/07/13 10:35:14;;;;;;;6.22;1.55;;;;;;;;;;5018783;28;20491;-92
2023/07/13 10:37:49;;;;;;;2.20;1.27;;;;;;;;;;4983184;28;20042;-94
2023/07/13 10:40:31;;;;;;;1.57;1.20;;;;;;;;;;5006381;28;20042;-93
2023/07/13 10:43:05;;;;;;;2.00;1.27;;;;;;;;;;4990892;28;20046;-92
2023/07/13 10:45:39;;;;;;;4.97;1.42;;;;;;;;;;4996145;28;20054;-94
2023/07/13 10:48:13;;;;;;;2.95;1.52;;;;;;;;;;4992774;28;20073;-94
2023/07/13 10:50:42;;;;;;;2.08;1.33;;;;;;;;;;4998276;28;20629;-92
2023/07/13 10:53:28;;;;;;;5.35;1.58;;;;;;;;;;4996288;28;20366;-93
2023/07/13 10:56:00;;;;;;;1.65;1.20;;;;;;;;;;4980880;28;20058;-93
2023/07/13 10:58:36;;;;;;;1.67;1.38;;;;;;;;;;4994717;28;20053;-94
2023/07/13 11:01:09;;;;;;;1.73;1.10;;;;;;;;;;4996038;28;20046;-92
2023/07/13 11:03:52;;;;;;;3.92;1.52;;;;;;;;;;4998757;28;20046;-93
2023/07/13 11:06:34;;;;;;;3.28;1.25;;;;;;;;;;4999374;28;20046;-93
2023/07/13 11:09:20;;;;;;;3.08;1.55;;;;;;;;;;5006994;28;20046;-93
2023/07/13 11:11:47;;;;;;;1.77;1.30;;;;;;;;;;4992909;28;20049;-92
2023/07/13 11:14:32;;;;;;;2.25;1.27;;;;;;;;;;4993414;28;20054;-93
2023/07/13 11:17:08;;;;;;;1.35;1.23;;;;;;;;;;4992473;28;20475;-94
2023/07/13 11:19:47;;;;;;;0.98;0.80;;;;;;;;;;4976093;28;20131;-94
2023/07/13 11:22:43;;;;;;;4.03;1.55;;;;;;;;;;4993040;28;20046;-94
2023/07/13 11:25:30;;;;;;;2.75;1.50;;;;;;;;;;4993631;28;20070;-92
2023/07/13 11:28:17;;;;;;;3.42;1.05;;;;;;;;;;4977035;28;20059;-93
2023/07/13 11:30:48;;;;;;;1.23;1.13;;;;;;;;;;4983123;28;20046;-94
2023/07/13 11:33:18;;;;;;;7.95;1.13;;;;;;;;;;4989773;28;20054;-91
2023/07/13 11:35:49;;;;;;;2.17;1.08;;;;;;;;;;4977155;28;20069;-92
2023/07/13 11:38:22;;;;;;;5.00;1.20;;;;;;;;;;5000271;28;20058;-91
2023/07/13 11:40:54;;;;;;;1.63;1.25;;;;;;;;;;5005057;28;20062;-92
2023/07/13 11:43:24;;;;;;;3.55;1.23;;;;;;;;;;4977844;28;20047;-92
2023/07/13 11:45:53;;;;;;;4.53;1.13;;;;;;;;;;4994621;28;20054;-93
2023/07/13 11:48:26;;;;;;;3.50;1.75;;;;;;;;;;4995154;28;20061;-93
2023/07/13 11:50:59;;;;;;;2.45;1.77;;;;;;;;;;4992509;28;20062;-93
2023/07/13 11:53:28;;;;;;;1.90;1.15;;;;;;;;;;4973434;28;20535;-92
2023/07/13 11:55:56;;;;;;;2.80;1.35;;;;;;;;;;5004592;28;20798;-92
2023/07/13 11:58:25;;;;;;;2.92;1.10;;;;;;;;;;5008823;28;20050;-93
2023/07/13 12:00:54;;;;;;;2.10;1.05;;;;;;;;;;4992362;28;20050;-93
2023/07/13 12:03:24;;;;;;;6.93;2.33;;;;;;;;;;4991027;28;20074;-92
2023/07/13 12:06:00;;;;;;;3.30;1.40;;;;;;;;;;4966453;28;20065;-94
2023/07/13 12:08:30;;;;;;;1.25;0.80;;;;;;;;;;4994109;28;20057;-94
2023/07/13 12:11:00;;;;;;;4.22;1.15;;;;;;;;;;4996567;28;20051;-94
2023/07/13 12:13:28;;;;;;;1.92;1.58;;;;;;;;;;4985813;28;20047;-93
2023/07/13 12:16:01;;;;;;;2.38;1.10;;;;;;;;;;4982453;28;20130;-93
2023/07/13 12:18:31;;;;;;;4.47;1.02;;;;;;;;;;4989662;28;20424;-93
2023/07/13 12:21:03;;;;;;;3.20;0.95;;;;;;;;;;4996622;28;20490;-94
2023/07/13 12:23:33;;;;;;;2.13;1.25;;;;;;;;;;4998953;28;20065;-93
2023/07/13 12:26:02;;;;;;;5.65;0.85;;;;;;;;;;4994719;28;20423;-93
2023/07/13 12:28:35;;;;;;;3.08;1.27;;;;;;;;;;4991339;28;20053;-92
2023/07/13 12:31:04;;;;;;;;;;;;;;;;;;4995256;28;20046;-93
2023/07/13 12:33:32;;;;;;;7.10;2.47;;;;;;;;;;4996524;28;19925;-92
2023/07/13 12:36:02;;;;;;;3.17;1.33;;;;;;;;;;4975579;28;20420;-93
2023/07/13 12:38:31;;;;;;;4.03;1.00;;;;;;;;;;4973601;28;20054;-93
2023/07/13 12:40:59;;;;;;;2.53;0.98;;;;;;;;;;4991192;28;20035;-92
2023/07/13 12:43:32;;;;;;;3.85;1.17;;;;;;;;;;5007926;28;20051;-92
2023/07/13 12:46:02;;;;;;;2.85;1.40;;;;;;;;;;4996738;28;20054;-92
2023/07/13 12:48:40;;;;;;;1.70;1.40;;;;;;;;;;4995111;28;20039;-92
2023/07/13 12:51:11;;;;;;;1.17;0.82;;;;;;;;;;4979423;28;20050;-92
2023/07/13 12:53:42;;;;;;;2.10;1.10;;;;;;;;;;4993990;28;20049;-93
2023/07/13 12:56:17;;;;;;;1.90;1.10;;;;;;;;;;4976528;28;20066;-90
2023/07/13 12:58:48;;;;;;;1.27;0.57;;;;;;;;;;4999066;28;20042;-93
2023/07/13 13:01:18;;;;;;;3.08;1.15;;;;;;;;;;4998623;28;20042;-93
2023/07/13 13:03:51;;;;;;;5.05;1.40;;;;;;;;;;4976750;28;20053;-92
2023/07/13 13:06:25;;;;;;;14.45;2.15;;;;;;;;;;4995343;28;20053;-92
2023/07/13 13:08:58;;;;;;;2.10;1.33;;;;;;;;;;4980138;28;20126;-93
2023/07/13 13:11:26;;;;;;;1.70;1.08;;;;;;;;;;4995849;28;20054;-91
2023/07/13 13:13:54;;;;;;;1.98;1.33;;;;;;;;;;5011997;28;20058;-93
2023/07/13 13:16:31;;;;;;;1.80;1.17;;;;;;;;;;4979696;28;20046;-91
2023/07/13 13:19:02;;;;;;;3.53;1.10;;;;;;;;;;4993240;28;20073;-92
2023/07/13 13:21:32;;;;;;;;;;;;;;;;;;5004457;28;20050;-92
2023/07/13 13:23:59;;;;;;;1.40;1.15;;;;;;;;;;5009409;28;19928;-92
2023/07/13 13:26:30;;;;;;;2.40;0.88;;;;;;;;;;4994239;28;20054;-91
2023/07/13 13:28:58;;;;;;;5.35;1.20;;;;;;;;;;4989785;28;20055;-92
2023/07/13 13:31:26;;;;;;;1.83;1.30;;;;;;;;;;4992796;28;20054;-92
2023/07/13 13:33:54;;;;;;;2.20;1.58;;;;;;;;;;4996483;28;20066;-92
2023/07/13 13:36:24;;;;;;;3.67;2.08;;;;;;;;;;5018947;28;20041;-91
2023/07/13 13:38:51;;;;;;;1.80;0.93;;;;;;;;;;5016089;28;20036;-92
2023/07/13 13:41:19;;;;;;;1.20;0.80;;;;;;;;;;4995775;28;20056;-92
2023/07/13 13:43:47;;;;;;;2.15;0.80;;;;;;;;;;4978183;28;20074;-91
2023/07/13 13:46:17;;;;;;;1.67;1.40;;;;;;;;;;4996860;28;20065;-90
2023/07/13 13:48:45;;;;;;;2.75;1.20;;;;;;;;;;4981061;28;20065;-91
2023/07/13 13:51:16;;;;;;;2.47;1.00;;;;;;;;;;4997850;28;20855;-92
2023/07/13 13:53:47;;;;;;;1.52;0.95;;;;;;;;;;4991141;28;20526;-92
2023/07/13 13:56:21;;;;;;;1.65;1.13;;;;;;;;;;5010531;28;20495;-92
2023/07/13 13:58:48;;;;;;;4.72;1.15;;;;;;;;;;5011416;28;20034;-92
2023/07/13 14:01:20;;;;;;;2.53;0.90;;;;;;;;;;5010227;28;20046;-92
2023/07/13 14:03:51;;;;;;;2.70;1.50;;;;;;;;;;4997772;28;20054;-92
2023/07/13 14:06:18;;;;;;;3.88;1.17;;;;;;;;;;4997458;28;20050;-92
2023/07/13 14:08:47;;;;;;;1.50;1.33;;;;;;;;;;4986067;28;20054;-91
2023/07/13 14:11:20;;;;;;;18.02;1.60;;;;;;;;;;5002277;28;20128;-93
2023/07/13 14:13:50;;;;;;;1.48;1.10;;;;;;;;;;5000912;28;20053;-93
2023/07/13 14:16:19;;;;;;;5.50;0.85;;;;;;;;;;5015212;28;20046;-93
2023/07/13 14:18:47;;;;;;;1.27;1.00;;;;;;;;;;5006106;28;20526;-92
2023/07/13 14:21:20;;;;;;;1.60;0.88;;;;;;;;;;4993791;28;20058;-93
2023/07/13 14:23:50;;;;;;;2.17;1.23;;;;;;;;;;4977259;28;20053;-93
2023/07/13 14:26:19;;;;;;;3.47;1.42;;;;;;;;;;4994088;28;20435;-90
2023/07/13 14:28:49;;;;;;;4.43;1.10;;;;;;;;;;4999608;28;20053;-92
2023/07/13 14:31:17;;;;;;;6.43;1.15;;;;;;;;;;4983302;28;20061;-92
2023/07/13 14:33:48;;;;;;;4.07;1.30;;;;;;;;;;5020012;28;20031;-91
2023/07/13 14:36:24;;;;;;;2.47;1.02;;;;;;;;;;5013667;28;20064;-91
2023/07/13 14:38:53;;;;;;;3.20;1.10;;;;;;;;;;5025921;28;20051;-90
2023/07/13 14:41:23;;;;;;;2.33;1.05;;;;;;;;;;5024190;28;20046;-91
2023/07/13 14:43:51;;;;;;;1.92;1.17;;;;;;;;;;5002818;28;20053;-90
2023/07/13 14:46:26;;;;;;;5.13;1.55;;;;;;;;;;5012784;28;20042;-91
2023/07/13 14:48:55;;;;;;;2.80;1.15;;;;;;;;;;5006369;28;20050;-91
2023/07/13 14:51:23;;;;;;;1.55;1.15;;;;;;;;;;4989730;28;20057;-91
2023/07/13 14:53:50;;;;;;;4.05;1.30;;;;;;;;;;5005188;28;20514;-93
2023/07/13 14:56:19;;;;;;;3.08;1.13;;;;;;;;;;5009264;28;20042;-91
2023/07/13 14:58:47;;;;;;;2.97;2.03;;;;;;;;;;5011836;28;20030;-91
2023/07/13 15:01:16;;;;;;;3.35;1.20;;;;;;;;;;5012933;28;20048;-91
2023/07/13 15:03:49;;;;;;;1.90;1.70;;;;;;;;;;4984475;28;20053;-90
2023/07/13 15:06:16;;;;;;;;;;;;;;;;;;4987360;28;20593;-90
2023/07/13 15:08:44;;;;;;;2.78;1.27;;;;;;;;;;5011700;28;19926;-90
2023/07/13 15:11:17;;;;;;;3.35;0.90;;;;;;;;;;4995907;28;20058;-92